createdAt,value
2022-10-31T00:01:39.122Z,65.40
2022-10-31T00:04:07.790Z,60.60
2022-10-31T00:06:36.154Z,91.10
2022-10-31T00:09:05.823Z,90.50
2022-10-31T00:11:34.150Z,68.60
2022-10-31T00:14:03.078Z,56.10
2022-10-31T00:16:31.813Z,55.20
2022-10-31T00:19:03.035Z,53.30
2022-10-31T00:21:32.476Z,51.50
2022-10-31T00:24:01.845Z,56.20
2022-10-31T00:26:32.535Z,54.00
2022-10-31T00:29:01.666Z,54.60
2022-10-31T00:31:30.684Z,59.70
2022-10-31T00:33:59.776Z,52.00
2022-10-31T00:36:28.285Z,62.20
2022-10-31T00:38:57.257Z,60.30
2022-10-31T00:41:25.714Z,58.20
2022-10-31T00:43:53.860Z,57.60
2022-10-31T00:46:22.222Z,61.50
2022-10-31T00:48:50.377Z,70.50
2022-10-31T00:51:18.741Z,58.80
2022-10-31T00:53:47.054Z,50.50
2022-10-31T00:56:15.570Z,49.50
2022-10-31T00:58:43.840Z,56.90
2022-10-31T01:01:12.217Z,53.40
2022-10-31T01:03:41.270Z,56.90
2022-10-31T01:06:12.476Z,47.10
2022-10-31T01:08:40.802Z,42.80
2022-10-31T01:11:15.220Z,37.40
2022-10-31T01:13:44.435Z,35.30
2022-10-31T01:16:15.487Z,33.50
2022-10-31T01:18:44.374Z,40.80
2022-10-31T01:21:22.274Z,32.50
2022-10-31T01:23:51.961Z,31.00
2022-10-31T01:26:23.350Z,33.60
2022-10-31T01:28:57.639Z,30.80
2022-10-31T01:31:29.376Z,30.30
2022-10-31T01:33:58.188Z,31.90
2022-10-31T01:36:32.526Z,32.30
2022-10-31T01:39:04.311Z,30.20
2022-10-31T01:41:35.599Z,27.70
2022-10-31T01:44:24.115Z,27.20
2022-10-31T01:46:57.924Z,28.80
2022-10-31T01:54:40.669Z,24.40
2022-10-31T01:57:11.584Z,32.10
2022-10-31T01:59:48.046Z,31.20
2022-10-31T02:02:18.577Z,34.60
2022-10-31T02:04:48.912Z,37.60
2022-10-31T02:07:58.287Z,28.50
2022-10-31T02:10:27.130Z,27.00
2022-10-31T02:12:58.667Z,26.70
2022-10-31T02:15:27.724Z,26.90
2022-10-31T02:17:56.097Z,28.90
2022-10-31T02:20:27.194Z,30.90
2022-10-31T02:23:23.458Z,35.80
2022-10-31T02:26:10.361Z,32.40
2022-10-31T02:28:48.805Z,31.00
2022-10-31T02:31:28.917Z,28.10
2022-10-31T02:34:20.179Z,27.80
2022-10-31T02:37:03.233Z,24.80
2022-10-31T02:39:42.168Z,27.90
2022-10-31T02:42:33.571Z,25.80
2022-10-31T02:45:13.904Z,29.60
2022-10-31T02:47:44.216Z,24.10
2022-10-31T02:50:17.549Z,25.00
2022-10-31T02:52:45.751Z,27.80
2022-10-31T02:55:26.291Z,24.20
2022-10-31T02:58:21.592Z,24.40
2022-10-31T03:01:15.820Z,23.60
2022-10-31T03:07:01.981Z,26.10
2022-10-31T03:09:42.934Z,26.30
2022-10-31T03:12:20.581Z,25.70
2022-10-31T03:15:04.784Z,24.20
2022-10-31T03:20:09.924Z,22.10
2022-10-31T03:22:43.157Z,20.30
2022-10-31T03:25:13.433Z,21.60
2022-10-31T03:27:44.956Z,19.50
2022-10-31T03:30:13.479Z,20.80
2022-10-31T03:32:47.879Z,21.30
2022-10-31T03:35:20.985Z,20.80
2022-10-31T03:37:51.076Z,19.60
2022-10-31T03:40:22.253Z,20.90
2022-10-31T03:43:01.259Z,20.30
2022-10-31T03:45:32.472Z,18.50
2022-10-31T03:48:01.704Z,19.30
2022-10-31T03:50:41.582Z,18.20
2022-10-31T03:53:17.519Z,19.70
2022-10-31T03:55:59.147Z,18.90
2022-10-31T03:58:33.779Z,17.60
2022-10-31T04:01:07.222Z,22.30
2022-10-31T04:03:39.039Z,19.60
2022-10-31T04:06:10.604Z,19.90
2022-10-31T04:08:51.283Z,20.20
2022-10-31T04:11:25.752Z,18.60
2022-10-31T04:13:56.245Z,17.50
2022-10-31T04:16:26.815Z,19.80
2022-10-31T04:18:55.525Z,17.00
2022-10-31T04:21:31.295Z,22.00
2022-10-31T04:23:59.583Z,20.70
2022-10-31T04:26:27.847Z,17.80
2022-10-31T04:28:56.113Z,16.90
2022-10-31T04:31:24.306Z,19.00
2022-10-31T04:33:52.484Z,17.30
2022-10-31T04:36:20.724Z,18.30
2022-10-31T04:38:48.880Z,16.40
2022-10-31T04:41:17.138Z,21.90
2022-10-31T04:43:45.389Z,22.60
2022-10-31T04:46:13.816Z,17.90
2022-10-31T04:48:42.030Z,18.70
2022-10-31T04:51:10.388Z,16.90
2022-10-31T04:53:38.667Z,16.60
2022-10-31T04:56:07.220Z,16.50
2022-10-31T04:58:35.469Z,17.50
2022-10-31T05:01:03.991Z,20.60
2022-10-31T05:03:32.461Z,17.40
2022-10-31T05:06:00.644Z,14.80
2022-10-31T05:08:28.860Z,16.10
2022-10-31T05:11:04.394Z,14.60
2022-10-31T05:13:33.185Z,16.80
2022-10-31T05:16:01.440Z,18.60
2022-10-31T05:18:29.662Z,18.90
2022-10-31T05:20:57.900Z,18.50
2022-10-31T05:23:26.091Z,15.50
2022-10-31T05:25:54.366Z,24.40
2022-10-31T05:28:22.550Z,33.90
2022-10-31T05:30:51.489Z,22.40
2022-10-31T05:33:19.863Z,20.30
2022-10-31T05:35:48.104Z,20.00
2022-10-31T05:38:16.293Z,24.30
2022-10-31T05:40:44.539Z,19.20
2022-10-31T05:43:12.886Z,18.70
2022-10-31T05:45:41.270Z,20.30
2022-10-31T05:48:09.770Z,21.00
2022-10-31T05:50:37.992Z,18.60
2022-10-31T05:53:06.801Z,17.40
2022-10-31T05:55:35.251Z,19.90
2022-10-31T05:58:03.708Z,18.70
2022-10-31T06:00:32.353Z,16.60
2022-10-31T06:03:02.178Z,19.30
2022-10-31T06:05:31.545Z,15.80
2022-10-31T06:08:00.635Z,24.50
2022-10-31T06:10:29.688Z,21.10
2022-10-31T06:12:58.119Z,23.90
2022-10-31T06:15:26.349Z,24.20
2022-10-31T06:18:06.340Z,20.60
2022-10-31T06:20:34.597Z,19.00
2022-10-31T06:23:03.734Z,19.60
2022-10-31T06:25:32.341Z,18.50
2022-10-31T06:28:00.726Z,16.70
2022-10-31T06:30:29.831Z,15.20
2022-10-31T06:33:05.020Z,16.70
2022-10-31T06:35:33.784Z,20.20
2022-10-31T06:38:02.381Z,25.30
2022-10-31T06:40:30.960Z,20.00
2022-10-31T06:43:01.180Z,38.10
2022-10-31T06:45:29.726Z,80.40
2022-10-31T06:50:47.281Z,27.70
2022-10-31T06:53:16.185Z,25.50
2022-10-31T06:55:44.660Z,40.10
2022-10-31T06:58:12.945Z,42.40
2022-10-31T07:00:41.269Z,36.00
2022-10-31T07:03:14.396Z,29.60
2022-10-31T07:05:43.860Z,21.60
2022-10-31T07:08:14.544Z,23.60
2022-10-31T07:10:44.255Z,17.60
2022-10-31T07:13:15.514Z,18.50
2022-10-31T07:15:45.032Z,16.90
2022-10-31T07:18:13.796Z,17.50
2022-10-31T07:20:42.076Z,18.80
2022-10-31T07:23:12.256Z,13.30
2022-10-31T07:25:41.336Z,10.90
2022-10-31T07:28:10.569Z,15.10
2022-10-31T07:30:39.906Z,10.20
2022-10-31T07:33:08.198Z,10.50
2022-10-31T07:35:36.579Z,12.40
2022-10-31T07:38:12.847Z,11.60
2022-10-31T07:40:42.675Z,17.00
2022-10-31T07:43:14.472Z,15.50
2022-10-31T07:45:43.285Z,26.10
2022-10-31T07:48:11.496Z,27.70
2022-10-31T07:50:40.631Z,26.00
2022-10-31T07:53:11.583Z,21.10
2022-10-31T07:55:40.859Z,21.80
2022-10-31T07:58:12.679Z,19.40
2022-10-31T08:00:43.028Z,18.30
2022-10-31T08:03:15.682Z,18.00
2022-10-31T08:05:46.067Z,16.60
2022-10-31T08:08:15.470Z,15.70
2022-10-31T08:10:43.936Z,18.00
2022-10-31T08:13:14.713Z,13.60
2022-10-31T08:15:43.390Z,13.90
2022-10-31T08:18:16.276Z,17.10
2022-10-31T08:20:45.267Z,13.70
2022-10-31T08:23:15.166Z,18.90
2022-10-31T08:25:43.761Z,22.60
2022-10-31T08:28:13.071Z,24.40
2022-10-31T08:30:42.706Z,19.90
2022-10-31T08:33:16.174Z,14.40
2022-10-31T08:35:45.367Z,12.60
2022-10-31T08:38:15.545Z,16.90
2022-10-31T08:40:44.175Z,21.20
2022-10-31T08:43:16.284Z,13.50
2022-10-31T08:45:46.096Z,22.60
2022-10-31T08:48:16.934Z,15.00
2022-10-31T08:50:47.226Z,13.50
2022-10-31T08:53:18.416Z,17.20
2022-10-31T08:55:48.188Z,15.30
2022-10-31T08:58:19.364Z,13.80
2022-10-31T09:00:50.045Z,13.00
2022-10-31T09:03:23.016Z,12.50
2022-10-31T09:05:52.092Z,15.50
2022-10-31T09:08:20.258Z,25.30
2022-10-31T09:10:48.998Z,33.70
2022-10-31T09:13:24.175Z,16.40
2022-10-31T09:15:54.562Z,17.00
2022-10-31T09:18:24.579Z,16.00
2022-10-31T09:20:53.023Z,19.00
2022-10-31T09:23:23.525Z,36.00
2022-10-31T09:25:53.701Z,41.50
2022-10-31T09:28:24.389Z,19.70
2022-10-31T09:30:54.324Z,18.90
2022-10-31T09:33:23.056Z,22.30
2022-10-31T09:35:51.471Z,18.30
2022-10-31T09:38:22.128Z,17.30
2022-10-31T09:41:16.422Z,29.10
2022-10-31T09:47:15.784Z,49.70
2022-10-31T09:50:12.833Z,37.70
2022-10-31T09:52:49.220Z,24.60
2022-10-31T09:55:22.407Z,22.70
2022-10-31T09:57:51.668Z,33.90
2022-10-31T10:00:22.613Z,22.90
2022-10-31T10:03:05.940Z,30.30
2022-10-31T10:05:43.475Z,31.10
2022-10-31T10:08:24.707Z,30.20
2022-10-31T10:11:07.612Z,35.30
2022-10-31T10:14:11.323Z,38.10
2022-10-31T10:16:55.891Z,27.20
2022-10-31T10:19:45.063Z,33.40
2022-10-31T10:22:55.995Z,26.90
2022-10-31T10:25:26.572Z,30.80
2022-10-31T10:27:57.875Z,31.20
2022-10-31T10:30:41.866Z,30.20
2022-10-31T10:33:21.515Z,31.10
2022-10-31T10:36:01.176Z,32.00
2022-10-31T10:39:01.114Z,29.30
2022-10-31T10:41:34.449Z,27.30
2022-10-31T10:47:08.407Z,31.10
2022-10-31T10:50:06.022Z,35.30
2022-10-31T10:53:00.904Z,36.60
2022-10-31T10:55:53.729Z,31.90
2022-10-31T10:58:21.994Z,39.60
2022-10-31T11:00:51.776Z,38.20
2022-10-31T11:03:21.018Z,36.00
2022-10-31T11:05:52.935Z,33.50
2022-10-31T11:08:35.096Z,34.40
2022-10-31T11:11:19.643Z,34.30
2022-10-31T11:13:51.141Z,30.80
2022-10-31T11:16:36.763Z,35.10
2022-10-31T11:19:14.738Z,33.90
2022-10-31T11:21:43.143Z,34.90
2022-10-31T11:24:11.373Z,34.70
2022-10-31T11:26:41.617Z,38.80
2022-10-31T11:29:15.979Z,34.00
2022-10-31T11:31:47.243Z,30.70
2022-10-31T11:34:25.149Z,34.60
2022-10-31T11:36:53.595Z,34.80
2022-10-31T11:39:25.352Z,28.30
2022-10-31T11:41:55.809Z,29.90
2022-10-31T11:44:28.213Z,33.70
2022-10-31T11:47:01.290Z,34.10
2022-10-31T11:49:45.127Z,32.00
2022-10-31T11:52:21.296Z,33.40
2022-10-31T11:55:16.186Z,32.80
2022-10-31T11:57:50.543Z,36.40
2022-10-31T12:03:34.775Z,35.70
2022-10-31T12:06:22.175Z,30.00
2022-10-31T12:08:51.239Z,33.00
2022-10-31T12:11:36.158Z,31.70
2022-10-31T12:14:15.489Z,29.00
2022-10-31T12:16:52.417Z,40.00
2022-10-31T12:19:34.437Z,29.60
2022-10-31T12:22:23.011Z,35.20
2022-10-31T12:25:15.313Z,31.40
2022-10-31T12:27:49.132Z,35.50
2022-10-31T12:31:06.606Z,31.60
2022-10-31T12:34:16.766Z,36.40
2022-10-31T12:37:01.404Z,29.80
2022-10-31T12:40:08.102Z,32.20
2022-10-31T12:43:10.932Z,32.40
2022-10-31T12:45:56.418Z,27.50
2022-10-31T12:48:51.629Z,30.10
2022-10-31T12:51:44.088Z,32.10
2022-10-31T12:54:27.443Z,30.30
2022-10-31T12:57:18.896Z,32.50
2022-10-31T13:00:17.114Z,32.80
2022-10-31T13:03:04.366Z,31.20
2022-10-31T13:05:38.877Z,30.90
2022-10-31T13:08:15.775Z,29.70
2022-10-31T13:11:12.058Z,30.00
2022-10-31T13:13:45.568Z,37.10
2022-10-31T13:18:51.443Z,29.90
2022-10-31T13:21:27.855Z,30.80
2022-10-31T13:24:00.324Z,27.60
2022-10-31T13:26:43.600Z,32.30
2022-10-31T13:29:28.377Z,30.70
2022-10-31T13:32:05.341Z,30.10
2022-10-31T13:37:40.703Z,32.00
2022-10-31T13:40:27.567Z,27.90
2022-10-31T13:43:12.565Z,29.60
2022-10-31T13:45:54.442Z,30.40
2022-10-31T13:48:28.695Z,28.30
2022-10-31T13:51:03.469Z,30.40
2022-10-31T13:53:37.700Z,33.50
2022-10-31T13:56:17.344Z,31.70
2022-10-31T13:59:23.417Z,25.90
2022-10-31T14:01:58.951Z,33.00
2022-10-31T14:07:25.340Z,32.80
2022-10-31T14:10:22.648Z,28.30
2022-10-31T14:12:51.785Z,32.80
2022-10-31T14:15:25.955Z,32.10
2022-10-31T14:17:58.738Z,27.40
2022-10-31T14:20:36.409Z,25.90
2022-10-31T14:23:34.093Z,27.30
2022-10-31T14:26:32.392Z,29.20
2022-10-31T14:29:23.575Z,25.50
2022-10-31T14:32:12.138Z,28.80
2022-10-31T14:34:44.001Z,30.50
2022-10-31T14:37:32.118Z,28.00
2022-10-31T14:40:17.579Z,30.60
2022-10-31T14:42:51.892Z,28.30
2022-10-31T14:45:55.322Z,25.20
2022-10-31T14:48:41.898Z,24.60
2022-10-31T14:51:27.877Z,30.80
2022-10-31T14:53:58.964Z,28.00
2022-10-31T14:56:39.382Z,26.90
2022-10-31T14:59:16.021Z,28.20
2022-10-31T15:02:03.394Z,29.20
2022-10-31T15:04:33.934Z,28.30
2022-10-31T15:07:05.896Z,28.50
2022-10-31T15:09:37.171Z,26.40
2022-10-31T15:12:25.652Z,24.40
2022-10-31T15:14:54.515Z,24.80
2022-10-31T15:17:25.120Z,22.80
2022-10-31T15:19:54.321Z,24.00
2022-10-31T15:22:25.799Z,24.00
2022-10-31T15:24:57.706Z,22.70
2022-10-31T15:27:26.159Z,22.40
2022-10-31T15:29:57.268Z,30.60
2022-10-31T15:32:30.706Z,25.20
2022-10-31T15:34:59.037Z,22.30
2022-10-31T15:37:28.637Z,27.60
2022-10-31T15:39:56.876Z,23.00
2022-10-31T15:42:31.737Z,24.50
2022-10-31T15:45:04.798Z,26.50
2022-10-31T15:47:34.811Z,24.30
2022-10-31T15:50:13.933Z,24.70
2022-10-31T15:52:48.673Z,23.00
2022-10-31T15:55:22.990Z,25.00
2022-10-31T15:57:58.537Z,24.20
2022-10-31T16:00:30.550Z,24.10
2022-10-31T16:03:15.656Z,23.40
2022-10-31T16:05:50.381Z,22.30
2022-10-31T16:08:30.438Z,26.50
2022-10-31T16:11:01.679Z,22.90
2022-10-31T16:13:36.883Z,24.10
2022-10-31T16:16:34.290Z,26.40
2022-10-31T16:19:06.545Z,26.70
2022-10-31T16:21:39.799Z,27.20
2022-10-31T16:24:29.655Z,26.60
2022-10-31T16:27:06.376Z,24.70
2022-10-31T16:29:43.541Z,21.80
2022-10-31T16:32:36.087Z,23.50
2022-10-31T16:35:13.200Z,24.00
2022-10-31T16:37:42.117Z,32.60
2022-10-31T16:40:15.635Z,25.80
2022-10-31T16:42:45.525Z,34.40
2022-10-31T16:45:23.626Z,37.10
2022-10-31T16:47:52.898Z,44.60
2022-10-31T16:50:27.103Z,43.10
2022-10-31T16:55:46.262Z,44.00
2022-10-31T16:58:19.278Z,40.40
2022-10-31T17:00:48.299Z,50.00
2022-10-31T17:03:17.236Z,50.70
2022-10-31T17:05:45.937Z,50.40
2022-10-31T17:08:14.174Z,41.10
2022-10-31T17:10:45.164Z,56.00
2022-10-31T17:13:20.337Z,31.20
2022-10-31T17:15:55.320Z,55.90
2022-10-31T17:18:27.640Z,39.10
2022-10-31T17:21:01.765Z,40.70
2022-10-31T17:23:30.616Z,37.60
2022-10-31T17:25:59.521Z,39.60
2022-10-31T17:28:28.310Z,42.50
2022-10-31T17:30:59.651Z,42.20
2022-10-31T17:33:28.821Z,42.30
2022-10-31T17:35:57.247Z,36.30
2022-10-31T17:38:25.562Z,39.50
2022-10-31T17:40:53.967Z,40.60
2022-10-31T17:43:27.288Z,46.60
2022-10-31T17:45:55.553Z,37.10
2022-10-31T17:48:24.436Z,34.50
2022-10-31T17:50:52.797Z,37.30
2022-10-31T17:53:21.596Z,35.10
2022-10-31T17:55:50.139Z,30.60
2022-10-31T17:58:18.644Z,30.40
2022-10-31T18:00:50.482Z,31.40
2022-10-31T18:03:20.236Z,32.40
2022-10-31T18:05:57.398Z,33.60
2022-10-31T18:08:31.344Z,31.50
2022-10-31T18:11:01.108Z,33.70
2022-10-31T18:13:29.749Z,40.30
2022-10-31T18:15:57.977Z,36.50
2022-10-31T18:18:26.649Z,31.50
2022-10-31T18:20:58.324Z,36.60
2022-10-31T18:23:27.032Z,33.90
2022-10-31T18:25:55.929Z,44.30
2022-10-31T18:28:25.273Z,37.80
2022-10-31T18:30:53.538Z,39.50
2022-10-31T18:33:22.401Z,41.00
2022-10-31T18:35:51.096Z,39.40
2022-10-31T18:38:20.454Z,42.50
2022-10-31T18:40:49.263Z,51.70
2022-10-31T18:43:18.073Z,45.00
2022-10-31T18:45:49.387Z,45.60
2022-10-31T18:48:19.688Z,47.00
2022-10-31T18:50:48.541Z,42.40
2022-10-31T18:53:17.758Z,45.70
2022-10-31T18:55:50.062Z,44.70
2022-10-31T18:58:19.604Z,38.90
2022-10-31T19:00:48.306Z,39.20
2022-10-31T19:03:19.697Z,40.20
2022-10-31T19:05:56.735Z,44.30
2022-10-31T19:13:35.110Z,30.90
2022-10-31T19:16:06.790Z,28.10
2022-10-31T19:18:35.975Z,34.00
2022-10-31T19:21:09.315Z,30.00
2022-10-31T19:23:38.683Z,37.20
2022-10-31T19:26:08.022Z,29.00
2022-10-31T19:28:40.035Z,32.20
2022-10-31T19:31:10.051Z,36.20
2022-10-31T19:33:38.934Z,33.30
2022-10-31T19:36:11.395Z,30.70
2022-10-31T19:38:42.343Z,32.20
2022-10-31T19:41:14.349Z,31.80
2022-10-31T19:43:43.724Z,25.50
2022-10-31T19:46:22.082Z,37.60
2022-10-31T19:48:51.957Z,29.00
2022-10-31T19:51:22.418Z,33.70
2022-10-31T19:53:50.985Z,35.70
2022-10-31T19:56:21.495Z,27.80
2022-10-31T19:58:50.266Z,29.00
2022-10-31T20:01:23.021Z,33.50
2022-10-31T20:03:52.498Z,29.60
2022-10-31T20:06:27.633Z,35.50
2022-10-31T20:08:57.538Z,26.30
2022-10-31T20:11:27.630Z,46.40
2022-10-31T20:13:57.851Z,32.20
2022-10-31T20:16:27.990Z,40.40
2022-10-31T20:18:57.980Z,31.60
2022-10-31T20:21:29.039Z,44.10
2022-10-31T20:24:01.419Z,43.00
2022-10-31T20:26:31.508Z,37.30
2022-10-31T20:29:01.851Z,35.00
2022-10-31T20:31:34.530Z,33.50
2022-10-31T20:34:05.617Z,28.40
2022-10-31T20:36:34.973Z,33.50
2022-10-31T20:39:04.896Z,31.40
2022-10-31T20:41:37.858Z,32.50
2022-10-31T20:44:07.996Z,34.60
2022-10-31T20:46:37.584Z,35.60
2022-10-31T20:49:06.486Z,43.10
2022-10-31T20:51:35.593Z,35.90
2022-10-31T20:54:04.124Z,30.00
2022-10-31T20:56:32.664Z,33.10
2022-10-31T20:59:00.958Z,32.60
2022-10-31T21:01:31.687Z,34.40
2022-10-31T21:04:00.067Z,28.40
2022-10-31T21:06:29.867Z,31.70
2022-10-31T21:08:59.406Z,34.60
2022-10-31T21:11:28.835Z,33.90
2022-10-31T21:13:59.822Z,33.20
2022-10-31T21:16:31.552Z,33.10
2022-10-31T21:19:01.071Z,29.50
2022-10-31T21:21:36.164Z,43.80
2022-10-31T21:24:13.680Z,30.90
2022-10-31T21:26:46.496Z,35.80
2022-10-31T21:29:15.512Z,28.60
2022-10-31T21:31:45.241Z,29.10
2022-10-31T21:34:13.855Z,25.40
2022-10-31T21:36:42.318Z,27.30
2022-10-31T21:39:10.851Z,29.10
2022-10-31T21:41:39.112Z,39.80
2022-10-31T21:44:07.380Z,34.10
2022-10-31T21:46:37.315Z,40.70
2022-10-31T21:49:05.820Z,34.70
2022-10-31T21:51:36.602Z,35.60
2022-10-31T21:54:23.925Z,33.70
2022-10-31T21:56:52.503Z,30.60
2022-10-31T21:59:20.846Z,34.30
2022-10-31T22:01:49.950Z,31.00
2022-10-31T22:04:19.304Z,33.50
2022-10-31T22:06:47.724Z,37.10
2022-10-31T22:09:17.510Z,32.80
2022-10-31T22:11:45.869Z,36.20
2022-10-31T22:14:15.509Z,23.00
2022-10-31T22:16:43.811Z,34.60
2022-10-31T22:19:13.896Z,27.70
2022-10-31T22:21:47.065Z,24.30
2022-10-31T22:24:16.905Z,33.10
2022-10-31T22:26:45.229Z,21.40
2022-10-31T22:29:16.603Z,33.60
2022-10-31T22:31:48.486Z,44.20
2022-10-31T22:34:19.430Z,37.10
2022-10-31T22:36:47.748Z,32.80
2022-10-31T22:39:16.037Z,36.80
2022-10-31T22:41:44.301Z,35.10
2022-10-31T22:44:12.584Z,27.20
2022-10-31T22:46:40.997Z,35.40
2022-10-31T22:49:15.107Z,30.50
2022-10-31T22:51:45.292Z,28.90
2022-10-31T22:54:16.470Z,40.30
2022-10-31T22:56:45.431Z,35.90
2022-10-31T22:59:15.439Z,36.80
2022-10-31T23:01:47.384Z,34.80
2022-10-31T23:04:16.916Z,33.70
2022-10-31T23:06:46.110Z,32.80
2022-10-31T23:09:16.754Z,29.80
2022-10-31T23:11:46.089Z,30.20
2022-10-31T23:14:21.180Z,26.30
2022-10-31T23:16:52.227Z,22.20
2022-10-31T23:19:23.609Z,29.20
2022-10-31T23:21:57.656Z,39.80
2022-10-31T23:24:36.385Z,28.00
2022-10-31T23:27:13.660Z,33.80
2022-10-31T23:29:44.588Z,25.50
2022-10-31T23:32:22.881Z,36.00
2022-10-31T23:34:53.432Z,21.60
2022-10-31T23:37:23.896Z,27.90
2022-10-31T23:39:52.173Z,27.20
2022-10-31T23:42:20.749Z,29.10
2022-10-31T23:44:49.430Z,29.40
2022-10-31T23:47:18.941Z,27.20
2022-10-31T23:49:47.359Z,28.10
2022-10-31T23:52:16.432Z,33.30
2022-10-31T23:54:44.937Z,33.40
2022-10-31T23:57:14.910Z,25.70
2022-10-31T23:59:44.035Z,29.10
